Time;durP1;ratioP1;P1;durP2;ratioP2;P2;SDS_P1;SDS_P2;PMS_P1;PMS_P2;Temp;Humidity;BMP_temperature;BMP_pressure;BME280_temperature;BME280_humidity;BME280_pressure;Samples;Min_cycle;Max_cycle;Signal;HPM_P1;HPM_P2
2021/08/23 00:00:13;;;;;;;3.88;3.03;;;17.00;99.90;;;;;;6213657;23;20005;-75
2021/08/23 00:02:39;;;;;;;6.40;3.38;;;17.00;99.90;;;;;;6214573;23;20039;-76
2021/08/23 00:05:05;;;;;;;6.47;3.22;;;17.00;99.90;;;;;;6214804;23;20170;-77
2021/08/23 00:07:31;;;;;;;5.70;3.08;;;17.00;99.90;;;;;;6214524;23;20008;-76
2021/08/23 00:09:56;;;;;;;3.63;3.03;;;17.00;99.90;;;;;;6214876;23;20079;-76
2021/08/23 00:12:24;;;;;;;4.82;2.78;;;17.00;99.90;;;;;;6188184;23;20011;-75
2021/08/23 00:14:51;;;;;;;3.63;2.80;;;17.00;99.90;;;;;;6215270;23;19996;-76
2021/08/23 00:17:17;;;;;;;4.65;2.95;;;16.90;99.90;;;;;;6213179;23;20021;-76
2021/08/23 00:19:42;;;;;;;5.35;3.45;;;16.90;99.90;;;;;;6213183;23;20591;-75
2021/08/23 00:24:52;;;;;;;5.72;3.05;;;17.00;99.90;;;;;;6213884;23;20155;-76
2021/08/23 00:27:18;;;;;;;5.47;3.05;;;16.90;99.90;;;;;;6215523;23;20056;-76
2021/08/23 00:29:47;;;;;;;4.30;3.10;;;16.90;99.90;;;;;;6216425;23;20000;-76
2021/08/23 00:32:14;;;;;;;4.68;3.33;;;16.90;99.90;;;;;;6215267;23;20013;-77
2021/08/23 00:34:40;;;;;;;7.35;3.42;;;16.90;99.90;;;;;;6214656;23;20075;-76
2021/08/23 00:37:06;;;;;;;4.85;2.85;;;17.00;99.90;;;;;;6214923;23;20004;-76
2021/08/23 00:39:34;;;;;;;6.18;2.80;;;17.00;99.90;;;;;;6214922;23;20063;-76
2021/08/23 00:42:00;;;;;;;4.65;2.72;;;17.00;99.90;;;;;;6215292;23;19997;-76
2021/08/23 00:44:26;;;;;;;5.43;3.03;;;16.90;99.90;;;;;;6216301;23;20012;-76
2021/08/23 00:46:52;;;;;;;3.42;2.95;;;16.90;99.90;;;;;;6215874;23;20009;-77
2021/08/23 00:49:18;;;;;;;4.68;2.53;;;16.90;99.90;;;;;;6214763;23;20028;-77
2021/08/23 00:51:44;;;;;;;6.55;3.42;;;16.90;99.90;;;;;;6214088;23;20009;-75
2021/08/23 00:54:09;;;;;;;7.10;3.25;;;16.90;99.90;;;;;;6214697;23;20004;-75
2021/08/23 00:56:36;;;;;;;4.68;2.40;;;16.90;99.90;;;;;;6214138;23;20352;-76
2021/08/23 00:59:01;;;;;;;4.60;2.85;;;17.00;99.90;;;;;;6215021;23;20000;-76
2021/08/23 01:01:53;;;;;;;3.92;2.75;;;17.10;99.90;;;;;;6213481;23;20012;-75
2021/08/23 01:04:38;;;;;;;4.97;2.85;;;17.00;99.90;;;;;;6213986;23;20028;-76
2021/08/23 01:07:09;;;;;;;4.68;2.78;;;16.90;99.90;;;;;;6187049;23;20001;-77
2021/08/23 01:09:39;;;;;;;4.20;3.30;;;16.80;99.90;;;;;;6214233;23;20005;-75
2021/08/23 01:12:06;;;;;;;3.28;2.75;;;16.80;99.90;;;;;;6214452;23;20009;-75
2021/08/23 01:14:32;;;;;;;4.50;3.17;;;16.60;99.90;;;;;;6214425;23;20005;-75
2021/08/23 01:16:59;;;;;;;4.35;3.35;;;16.60;99.90;;;;;;6212857;23;20305;-75
2021/08/23 01:19:25;;;;;;;3.15;2.67;;;16.50;99.90;;;;;;6213357;23;20012;-76
2021/08/23 01:21:53;;;;;;;6.38;3.50;;;16.50;99.90;;;;;;6214977;23;20000;-75
2021/08/23 01:24:20;;;;;;;6.30;3.00;;;16.40;99.90;;;;;;6214588;23;20328;-76
2021/08/23 01:26:49;;;;;;;4.53;2.90;;;16.30;99.90;;;;;;6214145;23;20075;-76
2021/08/23 01:29:15;;;;;;;4.53;3.08;;;16.30;99.90;;;;;;6213822;23;21294;-77
2021/08/23 01:31:40;;;;;;;6.68;3.25;;;16.30;99.90;;;;;;6215085;23;20016;-76
2021/08/23 01:34:08;;;;;;;3.95;3.05;;;16.20;99.90;;;;;;6214754;23;20498;-76
2021/08/23 01:36:35;;;;;;;7.28;3.17;;;16.20;99.90;;;;;;6215383;23;20478;-76
2021/08/23 01:39:01;;;;;;;3.88;3.22;;;16.20;99.90;;;;;;6214929;23;20009;-76
2021/08/23 01:41:27;;;;;;;3.53;3.15;;;16.20;99.90;;;;;;6215377;23;20080;-76
2021/08/23 01:43:52;;;;;;;6.65;3.03;;;16.20;99.90;;;;;;6188885;23;20522;-76
2021/08/23 01:46:18;;;;;;;5.35;2.92;;;16.20;99.90;;;;;;6215239;23;20001;-76
2021/08/23 01:48:46;;;;;;;3.67;2.72;;;16.20;99.90;;;;;;6213998;23;20004;-76
2021/08/23 01:51:11;;;;;;;3.97;2.90;;;16.20;99.90;;;;;;6214431;23;20108;-76
2021/08/23 01:53:38;;;;;;;3.83;2.75;;;16.30;99.90;;;;;;6214156;23;20007;-77
2021/08/23 01:56:04;;;;;;;4.22;2.70;;;16.20;99.90;;;;;;6213942;23;20001;-76
2021/08/23 01:58:29;;;;;;;4.75;2.92;;;16.20;99.90;;;;;;6213746;23;20008;-76
2021/08/23 02:00:55;;;;;;;3.30;2.67;;;16.20;99.90;;;;;;6215601;23;20000;-75
2021/08/23 02:03:21;;;;;;;6.85;2.80;;;16.20;99.90;;;;;;6215665;23;20005;-76
2021/08/23 02:05:46;;;;;;;3.85;2.65;;;16.20;99.90;;;;;;6189851;23;20008;-76
2021/08/23 02:08:12;;;;;;;6.63;2.75;;;16.20;99.90;;;;;;6215555;23;20001;-75
2021/08/23 02:10:38;;;;;;;3.10;2.75;;;16.20;99.90;;;;;;6216008;23;19997;-77
2021/08/23 02:13:04;;;;;;;4.97;3.30;;;16.20;99.90;;;;;;6216039;23;20048;-75
2021/08/23 02:15:30;;;;;;;3.22;2.92;;;16.20;99.90;;;;;;6216524;23;20071;-76
2021/08/23 02:17:55;;;;;;;4.13;2.53;;;16.30;99.90;;;;;;6214884;23;20012;-76
2021/08/23 02:20:21;;;;;;;4.35;2.80;;;16.30;99.90;;;;;;6215516;23;20067;-75
2021/08/23 02:22:48;;;;;;;2.90;2.60;;;16.30;99.90;;;;;;6213837;23;20424;-75
2021/08/23 02:25:21;;;;;;;5.35;2.60;;;16.30;99.90;;;;;;6216111;23;20007;-76
2021/08/23 02:27:46;;;;;;;5.40;2.35;;;16.40;99.90;;;;;;6215637;23;20004;-76
2021/08/23 02:30:12;;;;;;;3.40;2.53;;;16.40;99.90;;;;;;6215842;23;20004;-76
2021/08/23 02:32:38;;;;;;;4.15;2.50;;;16.30;99.90;;;;;;6215007;23;20035;-77
2021/08/23 02:35:04;;;;;;;3.03;2.72;;;16.30;99.90;;;;;;6215657;23;20420;-77
2021/08/23 02:37:30;;;;;;;5.85;3.58;;;16.30;99.90;;;;;;6215910;23;20046;-76
2021/08/23 02:39:56;;;;;;;5.00;2.63;;;16.30;99.90;;;;;;6218102;23;20000;-77
2021/08/23 02:42:21;;;;;;;3.03;2.42;;;16.40;99.90;;;;;;6217449;23;20001;-76
2021/08/23 02:44:47;;;;;;;4.40;2.72;;;16.40;99.90;;;;;;6216991;23;20058;-76
2021/08/23 02:47:13;;;;;;;4.78;2.70;;;16.40;99.90;;;;;;6215854;23;20000;-77
2021/08/23 02:49:38;;;;;;;4.47;2.42;;;16.30;99.90;;;;;;6213546;23;20036;-75
2021/08/23 02:52:04;;;;;;;3.83;2.88;;;16.30;99.90;;;;;;6214071;23;20013;-77
2021/08/23 02:54:30;;;;;;;5.32;2.70;;;16.20;99.90;;;;;;6214264;23;20015;-76
2021/08/23 02:56:55;;;;;;;5.68;2.60;;;16.20;99.90;;;;;;6215737;23;19997;-76
2021/08/23 02:59:21;;;;;;;4.68;2.67;;;16.20;99.90;;;;;;6215197;23;20000;-76
2021/08/23 03:01:47;;;;;;;3.75;3.13;;;16.20;99.90;;;;;;6214704;23;20001;-77
2021/08/23 03:04:12;;;;;;;4.57;2.78;;;16.20;99.90;;;;;;6214826;23;20004;-75
2021/08/23 03:06:38;;;;;;;4.78;2.95;;;16.20;99.90;;;;;;6215081;23;20005;-75
2021/08/23 03:09:04;;;;;;;4.75;2.58;;;16.20;99.90;;;;;;6214894;23;20024;-77
2021/08/23 03:11:30;;;;;;;3.30;2.70;;;16.20;99.90;;;;;;6214506;23;20146;-76
2021/08/23 03:13:56;;;;;;;6.32;2.53;;;16.20;99.90;;;;;;6214711;23;20004;-76
2021/08/23 03:16:22;;;;;;;4.57;2.53;;;16.10;99.90;;;;;;6215725;23;20328;-76
2021/08/23 03:18:48;;;;;;;3.45;2.60;;;16.10;99.90;;;;;;6215090;23;20022;-76
2021/08/23 03:21:13;;;;;;;3.92;2.53;;;16.10;99.90;;;;;;6215320;23;20020;-76
2021/08/23 03:23:39;;;;;;;4.32;2.50;;;16.20;99.90;;;;;;6215299;23;20035;-76
2021/08/23 03:26:06;;;;;;;4.65;3.08;;;16.20;99.90;;;;;;6215448;23;20058;-76
2021/08/23 03:28:32;;;;;;;5.22;2.45;;;16.30;99.90;;;;;;6215090;23;20304;-76
2021/08/23 03:30:58;;;;;;;3.97;2.80;;;16.20;99.90;;;;;;6216102;23;20021;-76
2021/08/23 03:33:24;;;;;;;3.20;2.75;;;16.10;99.90;;;;;;6215720;23;20015;-77
2021/08/23 03:35:49;;;;;;;3.22;2.42;;;16.10;99.90;;;;;;6215244;23;20005;-77
2021/08/23 03:38:16;;;;;;;7.65;3.42;;;16.10;99.90;;;;;;6215319;23;20060;-77
2021/08/23 03:40:41;;;;;;;7.55;3.30;;;16.00;99.90;;;;;;6215201;23;20000;-76
2021/08/23 03:43:07;;;;;;;4.15;2.58;;;16.00;99.90;;;;;;6214670;23;20045;-76
2021/08/23 03:45:33;;;;;;;6.95;3.05;;;16.00;99.90;;;;;;6213619;23;20084;-75
2021/08/23 03:47:59;;;;;;;5.45;3.03;;;16.00;99.90;;;;;;6214451;23;20001;-76
2021/08/23 03:50:24;;;;;;;5.35;3.53;;;15.80;99.90;;;;;;6188708;23;20007;-76
2021/08/23 03:52:50;;;;;;;5.32;2.83;;;15.90;99.90;;;;;;6212162;23;20012;-76
2021/08/23 03:55:17;;;;;;;3.90;2.83;;;15.80;99.90;;;;;;6186094;23;20036;-75
2021/08/23 03:57:42;;;;;;;7.45;3.20;;;15.90;99.90;;;;;;6212917;23;20008;-76
2021/08/23 04:00:10;;;;;;;5.28;3.50;;;15.80;99.90;;;;;;6187539;23;20033;-76
2021/08/23 04:02:35;;;;;;;7.45;3.20;;;15.90;99.90;;;;;;6212165;23;20674;-77
2021/08/23 04:05:01;;;;;;;7.57;3.03;;;15.90;99.90;;;;;;6186080;23;20032;-76
2021/08/23 04:07:27;;;;;;;5.22;3.05;;;15.90;99.90;;;;;;6213145;23;20007;-76
2021/08/23 04:09:52;;;;;;;6.18;4.13;;;15.90;99.90;;;;;;6213189;23;20008;-77
2021/08/23 04:12:18;;;;;;;4.50;2.90;;;15.90;99.90;;;;;;6215648;23;20462;-75
2021/08/23 04:14:44;;;;;;;3.47;2.97;;;15.90;99.90;;;;;;6214691;23;20031;-77
2021/08/23 04:17:09;;;;;;;5.43;3.33;;;15.90;99.90;;;;;;6214933;23;20020;-76
2021/08/23 04:19:35;;;;;;;4.57;3.17;;;16.00;99.90;;;;;;6213781;23;20015;-74
2021/08/23 04:22:01;;;;;;;7.72;2.75;;;16.00;99.90;;;;;;6212697;23;20000;-76
2021/08/23 04:24:27;;;;;;;6.47;2.78;;;16.10;99.90;;;;;;6212854;23;20497;-76
2021/08/23 04:26:53;;;;;;;5.22;2.90;;;16.20;99.90;;;;;;6214130;23;20005;-76
2021/08/23 04:29:19;;;;;;;3.38;2.88;;;16.20;99.90;;;;;;6214420;23;20027;-76
2021/08/23 04:31:45;;;;;;;3.83;3.03;;;16.20;99.90;;;;;;6187216;23;20502;-76
2021/08/23 04:34:11;;;;;;;5.75;2.80;;;16.30;99.90;;;;;;6213612;23;20008;-76
2021/08/23 04:36:40;;;;;;;4.43;2.80;;;16.30;99.90;;;;;;6188178;23;20401;-74
2021/08/23 04:39:15;;;;;;;4.63;2.80;;;16.30;99.90;;;;;;6188170;23;20012;-77
2021/08/23 04:41:42;;;;;;;4.13;2.70;;;16.40;99.90;;;;;;6213169;23;20058;-76
2021/08/23 04:44:09;;;;;;;5.68;3.42;;;16.40;99.90;;;;;;6211494;23;20006;-76
2021/08/23 04:46:36;;;;;;;5.95;2.90;;;16.50;99.90;;;;;;6213430;23;20016;-75
2021/08/23 04:49:02;;;;;;;6.28;3.83;;;16.50;99.90;;;;;;6212805;23;20001;-77
2021/08/23 04:51:28;;;;;;;5.68;2.63;;;16.50;99.90;;;;;;6211574;23;20055;-77
2021/08/23 04:53:53;;;;;;;5.35;2.83;;;16.60;99.90;;;;;;6184837;23;20005;-77
2021/08/23 04:56:19;;;;;;;5.03;2.58;;;16.60;99.90;;;;;;6211830;23;20076;-77
2021/08/23 04:58:45;;;;;;;6.85;2.97;;;16.60;99.90;;;;;;6211288;23;20455;-76
2021/08/23 05:01:12;;;;;;;4.10;3.08;;;16.60;99.90;;;;;;6210563;23;20051;-76
2021/08/23 05:03:37;;;;;;;4.93;2.97;;;16.60;99.90;;;;;;6212194;23;20012;-77
2021/08/23 05:06:03;;;;;;;5.28;2.55;;;16.70;99.90;;;;;;6211089;23;20526;-77
2021/08/23 05:08:29;;;;;;;4.53;2.60;;;16.70;99.90;;;;;;6210148;23;20020;-77
2021/08/23 05:10:55;;;;;;;3.92;3.03;;;16.70;99.90;;;;;;6210537;23;20012;-75
2021/08/23 05:13:21;;;;;;;3.75;2.88;;;16.70;99.90;;;;;;6212869;23;20027;-76
2021/08/23 05:15:47;;;;;;;6.88;2.92;;;16.70;99.90;;;;;;6162546;23;20008;-75
2021/08/23 05:18:14;;;;;;;4.28;2.67;;;16.70;99.90;;;;;;6214159;23;20351;-77
2021/08/23 05:20:40;;;;;;;6.10;3.17;;;16.70;99.90;;;;;;6212687;23;20015;-75
2021/08/23 05:23:05;;;;;;;3.78;3.30;;;16.80;99.90;;;;;;6213079;23;20005;-77
2021/08/23 05:25:33;;;;;;;4.35;2.85;;;16.80;99.90;;;;;;6213601;23;20005;-77
2021/08/23 05:28:01;;;;;;;6.28;2.95;;;16.90;99.90;;;;;;6214106;23;20012;-76
2021/08/23 05:30:26;;;;;;;7.97;3.45;;;16.90;99.90;;;;;;6214343;23;20072;-77
2021/08/23 05:32:52;;;;;;;12.45;4.28;;;17.00;99.90;;;;;;6213828;23;20448;-76
2021/08/23 05:35:18;;;;;;;66.55;15.90;;;17.00;99.90;;;;;;6212331;23;20005;-77
2021/08/23 05:37:43;;;;;;;7.82;4.28;;;17.00;99.90;;;;;;6212940;23;20408;-76
2021/08/23 05:40:10;;;;;;;6.03;2.88;;;17.10;99.90;;;;;;6213557;23;20007;-77
2021/08/23 05:42:36;;;;;;;7.68;3.70;;;17.10;99.90;;;;;;6212974;23;20011;-76
2021/08/23 05:45:02;;;;;;;3.80;2.65;;;17.10;99.90;;;;;;6213203;23;20017;-76
2021/08/23 05:47:27;;;;;;;4.72;3.47;;;17.10;99.90;;;;;;6213760;23;20019;-76
2021/08/23 05:49:53;;;;;;;4.82;3.03;;;17.10;99.90;;;;;;6213232;23;20008;-76
2021/08/23 05:52:19;;;;;;;4.97;2.95;;;17.20;99.90;;;;;;6215192;23;20043;-76
2021/08/23 05:54:46;;;;;;;5.25;2.97;;;17.30;99.90;;;;;;6213151;23;20016;-74
2021/08/23 05:57:12;;;;;;;6.22;3.20;;;17.30;99.90;;;;;;6213777;23;20458;-74
2021/08/23 05:59:38;;;;;;;3.90;3.03;;;17.40;99.90;;;;;;6213769;23;20079;-74
2021/08/23 06:02:04;;;;;;;10.63;2.70;;;17.40;99.90;;;;;;6213666;23;20007;-76
2021/08/23 06:04:29;;;;;;;4.18;2.85;;;17.50;99.90;;;;;;6213631;23;20059;-77
2021/08/23 06:06:55;;;;;;;5.80;3.03;;;17.50;99.90;;;;;;6212885;23;20084;-76
2021/08/23 06:09:21;;;;;;;5.53;3.25;;;17.60;99.90;;;;;;6214247;23;20005;-76
2021/08/23 06:11:48;;;;;;;4.88;3.30;;;17.70;99.90;;;;;;6215712;23;20015;-76
2021/08/23 06:14:13;;;;;;;4.82;3.10;;;17.80;99.90;;;;;;6214954;23;20062;-76
2021/08/23 06:16:39;;;;;;;4.13;3.03;;;17.80;99.90;;;;;;6214407;23;20412;-76
2021/08/23 06:19:05;;;;;;;11.15;4.03;;;17.80;99.90;;;;;;6213046;23;20026;-76
2021/08/23 06:21:32;;;;;;;4.90;2.78;;;17.80;99.90;;;;;;6213216;23;20432;-77
2021/08/23 06:23:57;;;;;;;4.28;3.17;;;17.90;99.90;;;;;;6213379;23;19997;-77
2021/08/23 06:26:23;;;;;;;4.55;3.10;;;17.90;99.90;;;;;;6212914;23;20004;-77
2021/08/23 06:28:49;;;;;;;4.32;2.97;;;17.90;99.90;;;;;;6213030;23;20008;-76
2021/08/23 06:31:15;;;;;;;6.32;3.28;;;18.00;99.90;;;;;;6213098;23;20013;-76
2021/08/23 06:33:40;;;;;;;5.80;3.60;;;18.00;99.90;;;;;;6214230;23;20012;-76
2021/08/23 06:36:06;;;;;;;4.65;3.33;;;18.10;99.90;;;;;;6217850;23;20001;-76
2021/08/23 06:38:32;;;;;;;5.43;3.45;;;18.10;99.90;;;;;;6216082;23;19996;-75
2021/08/23 06:40:58;;;;;;;3.85;3.45;;;18.20;99.90;;;;;;6212312;23;20011;-77
2021/08/23 06:43:24;;;;;;;5.25;3.95;;;18.20;99.90;;;;;;6184756;23;20004;-76
2021/08/23 06:45:50;;;;;;;4.60;3.70;;;18.30;99.90;;;;;;6213889;23;20001;-77
2021/08/23 06:48:15;;;;;;;6.25;4.43;;;18.30;99.90;;;;;;6188168;23;20009;-76
2021/08/23 06:50:41;;;;;;;7.22;4.10;;;18.40;99.90;;;;;;6214581;23;20000;-76
2021/08/23 06:53:07;;;;;;;4.60;3.80;;;18.40;99.90;;;;;;6213681;23;20420;-77
2021/08/23 06:55:33;;;;;;;5.18;4.18;;;18.40;99.90;;;;;;6209643;23;20004;-76
2021/08/23 06:58:00;;;;;;;6.78;4.10;;;18.40;99.90;;;;;;6213144;23;20083;-76
2021/08/23 07:00:26;;;;;;;7.35;3.35;;;18.50;99.90;;;;;;6215576;23;20008;-77
2021/08/23 07:02:52;;;;;;;4.40;3.90;;;18.60;99.90;;;;;;6188563;23;20317;-76
2021/08/23 07:05:17;;;;;;;5.20;3.80;;;18.50;99.90;;;;;;6214667;23;20011;-76
2021/08/23 07:07:43;;;;;;;5.63;3.45;;;18.60;99.90;;;;;;6214163;23;20027;-77
2021/08/23 07:10:11;;;;;;;6.38;4.28;;;18.70;99.90;;;;;;6215694;23;20046;-76
2021/08/23 07:12:38;;;;;;;6.28;3.97;;;18.70;99.90;;;;;;6218835;23;20036;-76
2021/08/23 07:15:04;;;;;;;4.22;3.72;;;18.70;99.90;;;;;;6218009;23;20008;-76
2021/08/23 07:17:30;;;;;;;9.80;3.70;;;18.70;99.90;;;;;;6216109;23;20044;-76
2021/08/23 07:19:56;;;;;;;5.70;3.58;;;18.80;99.90;;;;;;6217833;23;20000;-76
2021/08/23 07:22:27;;;;;;;4.90;3.85;;;18.80;99.90;;;;;;6217226;23;20076;-76
2021/08/23 07:24:53;;;;;;;6.28;4.00;;;18.90;99.90;;;;;;6215074;23;20008;-75
2021/08/23 07:27:19;;;;;;;5.85;3.53;;;19.00;99.90;;;;;;6216095;23;20005;-75
2021/08/23 07:29:45;;;;;;;4.95;4.00;;;19.00;99.90;;;;;;6217217;23;20048;-76
2021/08/23 07:32:11;;;;;;;4.75;3.85;;;19.10;99.90;;;;;;6189474;23;20088;-76
2021/08/23 07:34:37;;;;;;;6.22;3.40;;;19.10;99.90;;;;;;6188508;23;20036;-76
2021/08/23 07:37:04;;;;;;;5.60;3.47;;;19.10;99.90;;;;;;6210592;23;20087;-76
2021/08/23 07:39:30;;;;;;;4.07;3.53;;;19.20;99.90;;;;;;6214527;23;20009;-76
2021/08/23 07:41:55;;;;;;;7.78;4.57;;;19.20;99.90;;;;;;6211225;23;20008;-77
2021/08/23 07:44:21;;;;;;;5.13;4.63;;;19.30;99.90;;;;;;6213026;23;20328;-75
2021/08/23 07:46:47;;;;;;;6.10;4.28;;;19.40;99.90;;;;;;6212414;23;20037;-76
2021/08/23 07:49:12;;;;;;;6.90;4.35;;;19.40;99.90;;;;;;6212637;23;20079;-76
2021/08/23 07:51:38;;;;;;;10.98;5.03;;;19.40;99.90;;;;;;6209103;23;20023;-77
2021/08/23 07:54:04;;;;;;;7.75;4.95;;;19.50;99.90;;;;;;6210589;23;20008;-77
2021/08/23 07:56:30;;;;;;;8.85;4.55;;;19.50;99.90;;;;;;6212470;23;20027;-76
2021/08/23 07:58:58;;;;;;;6.50;4.40;;;19.60;99.90;;;;;;6215415;23;20004;-77
2021/08/23 08:01:25;;;;;;;5.38;3.67;;;19.50;99.90;;;;;;6214407;23;20056;-77
2021/08/23 08:03:51;;;;;;;8.50;4.60;;;19.50;99.90;;;;;;6213818;23;20004;-76
2021/08/23 08:06:18;;;;;;;6.40;3.83;;;19.60;99.90;;;;;;6215076;23;20088;-76
2021/08/23 08:08:44;;;;;;;4.53;3.60;;;19.60;99.90;;;;;;6215558;23;20001;-77
2021/08/23 08:11:10;;;;;;;6.65;4.00;;;19.60;99.90;;;;;;6213208;23;20119;-76
2021/08/23 08:13:39;;;;;;;4.95;4.10;;;19.60;99.90;;;;;;6207159;23;20005;-77
2021/08/23 08:16:04;;;;;;;8.15;4.50;;;19.60;99.90;;;;;;6215996;23;20005;-76
2021/08/23 08:18:30;;;;;;;4.70;4.20;;;19.60;99.90;;;;;;6213528;23;20026;-76
2021/08/23 08:20:56;;;;;;;6.18;4.10;;;19.60;99.90;;;;;;6190754;23;20091;-76
2021/08/23 08:23:22;;;;;;;8.75;4.35;;;19.60;99.90;;;;;;6213233;23;20007;-76
2021/08/23 08:25:47;;;;;;;5.25;3.67;;;19.60;99.90;;;;;;6212915;23;20009;-77
2021/08/23 08:28:13;;;;;;;5.97;4.07;;;19.70;99.90;;;;;;6216743;23;20004;-77
2021/08/23 08:30:39;;;;;;;4.43;3.85;;;19.70;99.90;;;;;;6215824;23;20011;-77
2021/08/23 08:33:05;;;;;;;4.70;3.50;;;19.70;99.90;;;;;;6218439;23;20015;-77
2021/08/23 08:35:32;;;;;;;5.60;4.13;;;19.70;99.90;;;;;;6213590;23;20339;-76
2021/08/23 08:37:58;;;;;;;5.63;4.35;;;19.80;99.90;;;;;;6213263;23;20067;-77
2021/08/23 08:40:24;;;;;;;5.85;3.58;;;19.70;99.90;;;;;;6211729;23;20079;-77
2021/08/23 08:42:51;;;;;;;7.80;4.35;;;19.80;99.90;;;;;;6211712;23;20005;-77
2021/08/23 08:45:17;;;;;;;6.97;4.38;;;19.70;99.90;;;;;;6213364;23;20000;-77
2021/08/23 08:47:44;;;;;;;5.03;3.50;;;19.70;99.90;;;;;;6211439;23;20075;-76
2021/08/23 08:50:14;;;;;;;4.50;3.90;;;19.80;99.90;;;;;;6184726;23;20084;-76
2021/08/23 08:52:42;;;;;;;5.05;4.07;;;19.70;99.90;;;;;;6211645;23;20087;-77
2021/08/23 08:55:08;;;;;;;4.45;3.92;;;19.70;99.90;;;;;;6212514;23;20122;-77
2021/08/23 08:57:34;;;;;;;5.47;4.00;;;19.70;99.90;;;;;;6215374;23;20066;-76
2021/08/23 09:00:00;;;;;;;10.40;4.32;;;19.80;99.90;;;;;;6212568;23;20067;-77
2021/08/23 09:02:26;;;;;;;6.75;4.05;;;19.80;99.90;;;;;;6183872;23;20351;-77
2021/08/23 09:04:52;;;;;;;4.25;3.85;;;19.80;99.90;;;;;;6210892;23;20015;-75
2021/08/23 09:07:17;;;;;;;4.07;3.67;;;19.80;99.90;;;;;;6213256;23;20324;-77
2021/08/23 09:09:46;;;;;;;6.45;4.00;;;19.80;99.90;;;;;;6211809;23;20001;-77
2021/08/23 09:12:13;;;;;;;5.43;3.75;;;19.80;99.90;;;;;;6215923;23;20008;-77
2021/08/23 09:14:51;;;;;;;7.32;4.05;;;19.80;99.90;;;;;;6215428;23;20091;-76
2021/08/23 09:17:16;;;;;;;5.10;3.65;;;19.90;99.90;;;;;;6216885;23;20044;-75
2021/08/23 09:19:42;;;;;;;5.72;3.92;;;19.80;99.90;;;;;;6214839;23;20009;-76
2021/08/23 09:22:11;;;;;;;5.10;3.50;;;19.80;99.90;;;;;;6214836;23;20015;-76
2021/08/23 09:24:39;;;;;;;5.72;3.90;;;19.80;99.90;;;;;;6215468;23;20004;-76
2021/08/23 09:27:07;;;;;;;6.75;4.40;;;19.80;99.90;;;;;;6215028;23;20012;-75
2021/08/23 09:30:00;;;;;;;3.97;3.58;;;19.90;99.90;;;;;;6213662;23;20001;-77
2021/08/23 09:32:30;;;;;;;7.93;4.18;;;19.90;99.90;;;;;;6214162;23;20017;-76
2021/08/23 09:34:57;;;;;;;5.78;3.53;;;19.90;99.90;;;;;;6214013;23;20664;-76
2021/08/23 09:37:31;;;;;;;8.15;3.83;;;19.90;99.90;;;;;;6211922;23;20008;-75
2021/08/23 09:40:09;;;;;;;5.03;4.10;;;19.90;99.90;;;;;;6211874;23;20007;-76
2021/08/23 09:42:34;;;;;;;6.88;4.40;;;20.00;99.90;;;;;;6211624;23;20005;-75
2021/08/23 09:45:00;;;;;;;4.53;3.80;;;20.00;99.90;;;;;;6211643;23;20063;-76
2021/08/23 09:47:30;;;;;;;7.80;3.88;;;20.10;99.90;;;;;;6209870;23;20000;-76
2021/08/23 09:49:56;;;;;;;5.22;3.67;;;20.10;99.90;;;;;;6213383;23;20005;-75
2021/08/23 09:52:32;;;;;;;4.63;4.20;;;20.10;99.90;;;;;;6213150;23;20019;-76
2021/08/23 09:55:04;;;;;;;5.68;4.10;;;20.10;99.90;;;;;;6212633;23;20343;-75
2021/08/23 09:57:38;;;;;;;5.25;4.20;;;20.10;99.90;;;;;;6213021;23;20008;-76
2021/08/23 10:00:07;;;;;;;7.25;3.45;;;20.10;99.90;;;;;;6184805;23;20036;-76
2021/08/23 10:02:34;;;;;;;5.07;4.20;;;20.10;99.90;;;;;;6212031;23;19997;-76
2021/08/23 10:05:01;;;;;;;7.00;4.22;;;20.10;99.90;;;;;;6212410;23;20243;-76
2021/08/23 10:07:29;;;;;;;7.13;4.03;;;20.10;99.90;;;;;;6212367;23;20025;-76
2021/08/23 10:10:01;;;;;;;5.32;4.45;;;20.10;99.90;;;;;;6213103;23;20017;-75
2021/08/23 10:12:29;;;;;;;4.38;3.97;;;20.10;99.90;;;;;;6186021;23;20012;-75
2021/08/23 10:14:59;;;;;;;4.80;3.90;;;20.10;99.90;;;;;;6211975;23;20011;-76
2021/08/23 10:17:25;;;;;;;8.98;4.35;;;20.10;99.90;;;;;;6210994;23;20017;-76
2021/08/23 10:19:51;;;;;;;6.82;4.28;;;20.00;99.90;;;;;;6210222;23;20395;-76
2021/08/23 10:22:17;;;;;;;7.45;4.78;;;20.10;99.90;;;;;;6214134;23;20015;-75
2021/08/23 10:24:43;;;;;;;9.80;4.43;;;20.10;99.90;;;;;;6214090;23;20028;-76
2021/08/23 10:27:21;;;;;;;6.40;4.60;;;20.00;99.90;;;;;;6213923;23;20088;-76
2021/08/23 10:29:48;;;;;;;9.20;4.53;;;20.00;99.90;;;;;;6213856;23;20004;-75
2021/08/23 10:32:14;;;;;;;5.28;4.78;;;19.90;99.90;;;;;;6213431;23;20036;-76
2021/08/23 10:34:40;;;;;;;4.88;4.38;;;20.00;99.90;;;;;;6213042;23;20008;-75
2021/08/23 10:37:29;;;;;;;6.20;4.50;;;19.90;99.90;;;;;;6215508;23;20084;-75
2021/08/23 10:40:00;;;;;;;8.10;4.65;;;19.90;99.90;;;;;;6211936;23;20015;-76
2021/08/23 10:42:39;;;;;;;5.50;4.95;;;19.90;99.90;;;;;;6212284;23;20009;-76
2021/08/23 10:45:10;;;;;;;10.53;4.57;;;19.90;99.90;;;;;;6186197;23;20008;-76
2021/08/23 10:47:36;;;;;;;8.80;4.97;;;19.90;99.90;;;;;;6214740;23;21112;-76
2021/08/23 10:50:02;;;;;;;6.18;5.18;;;19.80;99.90;;;;;;6213412;23;20004;-75
2021/08/23 10:52:35;;;;;;;6.80;5.03;;;19.80;99.90;;;;;;6186744;23;20013;-75
2021/08/23 10:55:06;;;;;;;5.40;4.40;;;19.70;99.90;;;;;;6212993;23;20454;-76
2021/08/23 10:57:32;;;;;;;6.90;4.85;;;19.70;99.90;;;;;;6213375;23;20012;-77
2021/08/23 11:00:10;;;;;;;6.50;5.13;;;19.60;99.90;;;;;;6214609;23;20005;-75
2021/08/23 11:02:38;;;;;;;4.78;4.38;;;19.60;99.90;;;;;;6215547;23;20087;-76
2021/08/23 11:05:09;;;;;;;5.85;5.25;;;19.50;99.90;;;;;;6213566;23;20458;-75
2021/08/23 11:07:38;;;;;;;11.00;6.15;;;19.50;99.90;;;;;;6211985;23;20062;-76
2021/08/23 11:10:11;;;;;;;10.05;6.22;;;19.50;99.90;;;;;;6211462;23;20064;-76
2021/08/23 11:12:44;;;;;;;8.18;5.38;;;19.40;99.90;;;;;;6212683;23;20071;-76
2021/08/23 11:15:24;;;;;;;9.57;6.40;;;19.30;99.90;;;;;;6212398;23;20058;-76
2021/08/23 11:17:55;;;;;;;9.52;6.57;;;19.20;99.90;;;;;;6213407;23;20016;-76
2021/08/23 11:20:22;;;;;;;;;;;19.20;99.90;;;;;;6213279;23;20005;-75
2021/08/23 11:23:02;;;;;;;8.52;5.97;;;19.10;99.90;;;;;;6212819;23;19910;-78
2021/08/23 11:25:44;;;;;;;6.50;5.70;;;19.10;99.90;;;;;;6212848;23;20001;-75
2021/08/23 11:28:12;;;;;;;13.10;7.18;;;19.00;99.90;;;;;;6214347;23;20031;-76
2021/08/23 11:30:46;;;;;;;7.53;6.57;;;18.90;99.90;;;;;;6213257;23;20008;-76
2021/08/23 11:33:27;;;;;;;7.70;6.05;;;18.90;99.90;;;;;;6213326;23;20071;-76
2021/08/23 11:35:54;;;;;;;7.45;6.38;;;18.90;99.90;;;;;;6213493;23;20024;-75
2021/08/23 11:38:31;;;;;;;7.43;6.68;;;18.90;99.90;;;;;;6185419;23;20004;-75
2021/08/23 11:40:57;;;;;;;8.07;7.28;;;18.90;99.90;;;;;;6185770;23;20008;-76
2021/08/23 11:43:28;;;;;;;8.18;7.38;;;18.80;99.90;;;;;;6185682;23;20103;-76
2021/08/23 11:45:55;;;;;;;10.40;7.43;;;18.80;99.90;;;;;;6211829;23;20317;-75
2021/08/23 11:48:21;;;;;;;8.43;6.88;;;18.80;99.90;;;;;;6212921;23;20062;-75
2021/08/23 11:50:47;;;;;;;7.72;6.90;;;18.70;99.90;;;;;;6212434;23;20006;-76
2021/08/23 11:53:13;;;;;;;8.30;6.60;;;18.70;99.90;;;;;;6212481;23;20013;-75
2021/08/23 11:55:41;;;;;;;8.65;7.78;;;18.80;99.90;;;;;;6212362;23;20076;-74
2021/08/23 11:58:10;;;;;;;9.43;6.80;;;18.70;99.90;;;;;;6212597;23;20008;-76
2021/08/23 12:00:37;;;;;;;13.50;7.25;;;18.70;99.90;;;;;;6212914;23;20015;-76
2021/08/23 12:03:04;;;;;;;8.35;7.20;;;18.60;99.90;;;;;;6185292;23;20091;-74
2021/08/23 12:05:40;;;;;;;9.27;7.57;;;18.50;99.90;;;;;;6211701;23;20005;-76
2021/08/23 12:08:34;;;;;;;7.63;6.45;;;18.60;99.90;;;;;;6208527;23;20008;-76
2021/08/23 12:11:14;;;;;;;8.55;7.07;;;18.60;99.90;;;;;;6195143;23;20399;-76
2021/08/23 12:13:51;;;;;;;9.23;7.55;;;18.50;99.90;;;;;;6212389;23;20009;-75
2021/08/23 12:16:20;;;;;;;9.15;7.53;;;18.50;99.90;;;;;;6212055;23;20012;-75
2021/08/23 12:18:51;;;;;;;8.70;7.50;;;18.50;99.90;;;;;;6211157;23;20017;-74
2021/08/23 12:21:25;;;;;;;9.35;7.80;;;18.40;99.90;;;;;;6210910;23;20076;-75
2021/08/23 12:24:20;;;;;;;8.57;7.22;;;18.50;99.90;;;;;;6211290;23;20008;-74
2021/08/23 12:26:56;;;;;;;8.27;6.90;;;18.40;99.90;;;;;;6211331;23;20100;-76
2021/08/23 12:29:36;;;;;;;7.72;6.93;;;18.30;99.90;;;;;;6210507;23;20009;-76
2021/08/23 12:32:07;;;;;;;10.30;8.75;;;18.30;99.90;;;;;;6210540;23;20012;-76
2021/08/23 12:34:47;;;;;;;8.40;7.07;;;18.10;99.90;;;;;;6211386;23;20028;-76
2021/08/23 12:37:14;;;;;;;11.20;7.68;;;18.10;99.90;;;;;;6213354;23;20028;-76
2021/08/23 12:39:44;;;;;;;8.75;7.85;;;18.20;99.90;;;;;;6212441;23;20443;-75
2021/08/23 12:42:10;;;;;;;11.18;7.68;;;18.10;99.90;;;;;;6206963;23;20008;-77
2021/08/23 12:44:36;;;;;;;10.45;6.93;;;18.10;99.90;;;;;;6185030;23;20486;-75
2021/08/23 12:47:02;;;;;;;9.00;7.15;;;18.00;99.90;;;;;;6184521;23;20011;-75
2021/08/23 12:49:28;;;;;;;9.27;7.85;;;18.10;99.90;;;;;;6211725;23;20008;-76